Time;durP1;ratioP1;P1;durP2;ratioP2;P2;SDS_P1;SDS_P2;PMS_P1;PMS_P2;Temp;Humidity;BMP_temperature;BMP_pressure;BME280_temperature;BME280_humidity;BME280_pressure;Samples;Min_cycle;Max_cycle;Signal;HPM_P1;HPM_P2
2022/05/10 00:02:16;;;;;;;13.30;4.80;;;12.10;99.90;;;;;;5029687;28;20059;-88
2022/05/10 00:04:49;;;;;;;15.88;5.32;;;12.20;99.90;;;;;;5017046;28;20046;-87
2022/05/10 00:07:16;;;;;;;12.25;4.90;;;12.00;99.90;;;;;;5034625;28;20053;-89
2022/05/10 00:09:47;;;;;;;10.30;4.88;;;11.90;99.90;;;;;;5013262;28;20049;-89
2022/05/10 00:12:15;;;;;;;9.10;4.78;;;12.00;99.90;;;;;;5023743;28;20041;-89
2022/05/10 00:14:51;;;;;;;;;;;;;;;;;;;;;
2022/05/10 00:17:32;;;;;;;11.43;5.40;;;12.00;99.90;;;;;;5032698;28;20436;-89
2022/05/10 00:19:58;;;;;;;10.40;4.80;;;12.00;99.90;;;;;;5015971;28;20061;-90
2022/05/10 00:22:26;;;;;;;11.32;4.63;;;12.00;99.90;;;;;;5016084;28;20494;-89
2022/05/10 00:24:56;;;;;;;11.95;5.00;;;11.90;99.90;;;;;;5015241;28;20045;-88
2022/05/10 00:27:35;;;;;;;;;;;;;;;;;;;;;
2022/05/10 00:30:04;;;;;;;13.38;4.70;;;12.00;99.90;;;;;;5028403;28;20056;-87
2022/05/10 00:32:40;;;;;;;15.00;4.75;;;12.00;99.90;;;;;;5034749;28;20060;-88
2022/05/10 00:35:19;;;;;;;14.52;5.47;;;12.00;99.90;;;;;;5057700;28;20055;-87
2022/05/10 00:37:47;;;;;;;7.80;4.65;;;12.00;99.90;;;;;;5037119;28;20062;-88
2022/05/10 00:40:15;;;;;;;13.82;5.65;;;12.10;99.90;;;;;;5016368;28;20045;-88
2022/05/10 00:43:00;;;;;;;11.43;4.70;;;12.10;99.90;;;;;;5011726;28;20049;-88
2022/05/10 00:45:39;;;;;;;12.25;4.80;;;12.20;99.90;;;;;;5019870;28;20057;-89
2022/05/10 00:48:24;;;;;;;13.07;5.55;;;12.20;99.90;;;;;;5012846;28;20073;-88
2022/05/10 00:50:56;;;;;;;7.95;4.35;;;12.20;99.90;;;;;;5028572;28;20059;-88
2022/05/10 00:53:30;;;;;;;8.75;4.50;;;12.20;99.90;;;;;;5056692;28;20053;-90
2022/05/10 00:56:12;;;;;;;10.55;4.90;;;12.10;99.90;;;;;;5055415;28;20114;-88
2022/05/10 00:58:51;;;;;;;12.57;5.20;;;12.20;99.90;;;;;;5015816;28;20049;-89
2022/05/10 01:01:26;;;;;;;10.65;4.80;;;12.20;99.90;;;;;;5036962;28;20052;-89
2022/05/10 01:04:09;;;;;;;10.40;5.40;;;12.10;99.90;;;;;;5013794;28;20164;-88
2022/05/10 01:07:00;;;;;;;9.00;4.43;;;12.10;99.90;;;;;;5030020;28;20049;-89
2022/05/10 01:09:46;;;;;;;12.45;5.10;;;12.10;99.90;;;;;;5031082;28;20053;-89
2022/05/10 01:12:24;;;;;;;13.45;4.88;;;12.10;99.90;;;;;;5028312;28;20057;-89
2022/05/10 01:15:03;;;;;;;10.77;4.20;;;12.10;99.90;;;;;;5016757;28;20053;-89
2022/05/10 01:17:29;;;;;;;10.63;4.75;;;12.10;99.90;;;;;;5057582;28;20041;-89
2022/05/10 01:19:59;;;;;;;11.45;4.78;;;12.10;99.90;;;;;;5034074;28;20053;-88
2022/05/10 01:23:03;;;;;;;9.70;4.22;;;12.10;99.90;;;;;;5039268;28;20122;-88
2022/05/10 01:26:03;;;;;;;8.27;4.57;;;12.10;99.90;;;;;;5026507;28;20064;-88
2022/05/10 01:28:35;;;;;;;12.73;5.13;;;12.10;99.90;;;;;;5016588;28;20520;-89
2022/05/10 01:31:08;;;;;;;9.73;4.60;;;12.20;99.90;;;;;;5029339;28;20050;-88
2022/05/10 01:33:47;;;;;;;15.10;4.90;;;12.10;99.90;;;;;;5034693;28;20084;-88
2022/05/10 01:36:18;;;;;;;10.55;5.30;;;12.00;99.90;;;;;;5017352;28;20057;-89
2022/05/10 01:39:07;;;;;;;9.10;4.80;;;12.10;99.90;;;;;;5016375;28;20057;-89
2022/05/10 01:41:57;;;;;;;11.88;4.97;;;12.00;99.90;;;;;;5028718;28;20156;-89
2022/05/10 01:44:41;;;;;;;11.55;4.78;;;12.00;99.90;;;;;;5035491;28;20058;-89
2022/05/10 01:47:15;;;;;;;9.73;5.30;;;12.00;99.90;;;;;;5025331;28;20045;-89
2022/05/10 01:49:52;;;;;;;11.98;5.90;;;11.90;99.90;;;;;;5060420;28;20053;-88
2022/05/10 01:52:51;;;;;;;11.77;5.32;;;11.80;99.90;;;;;;5033091;28;20625;-89
2022/05/10 01:55:35;;;;;;;11.15;4.75;;;11.70;99.90;;;;;;5034715;28;20048;-89
2022/05/10 01:58:13;;;;;;;12.25;4.97;;;11.70;99.90;;;;;;5016525;28;20127;-88
2022/05/10 02:00:41;;;;;;;11.23;5.00;;;11.80;99.90;;;;;;5013675;28;20482;-88
2022/05/10 02:03:22;;;;;;;11.95;5.00;;;11.80;99.90;;;;;;5046060;28;20045;-89
2022/05/10 02:05:56;;;;;;;11.32;5.30;;;11.70;99.90;;;;;;5036190;28;20509;-89
2022/05/10 02:08:40;;;;;;;12.15;5.20;;;11.70;99.90;;;;;;5034765;28;20080;-89
2022/05/10 02:11:11;;;;;;;12.85;5.60;;;11.70;99.90;;;;;;5036127;28;20056;-90
2022/05/10 02:14:09;;;;;;;11.77;5.82;;;11.70;99.90;;;;;;5018443;28;20125;-90
2022/05/10 02:16:51;;;;;;;13.98;6.18;;;11.70;99.90;;;;;;5044520;28;20526;-88
2022/05/10 02:19:37;;;;;;;12.55;6.15;;;11.70;99.90;;;;;;5034418;28;20049;-89
2022/05/10 02:22:16;;;;;;;10.50;6.20;;;12.00;99.90;;;;;;5044081;28;20347;-88
2022/05/10 02:24:50;;;;;;;13.45;6.03;;;11.70;99.90;;;;;;5033651;28;20052;-90
2022/05/10 02:27:21;;;;;;;13.10;6.97;;;11.80;99.90;;;;;;5035054;28;20064;-89
2022/05/10 02:29:52;;;;;;;14.85;6.47;;;12.00;99.90;;;;;;5018587;28;20045;-88
2022/05/10 02:35:10;;;;;;;11.55;6.72;;;12.00;99.90;;;;;;5035593;28;20114;-89
2022/05/10 02:37:36;;;;;;;18.60;7.20;;;12.00;99.90;;;;;;5060242;28;20065;-88
2022/05/10 02:40:03;;;;;;;12.45;7.03;;;12.00;99.90;;;;;;5015570;28;20132;-88
2022/05/10 02:42:33;;;;;;;11.95;7.35;;;12.10;99.90;;;;;;5031559;28;20038;-90
2022/05/10 02:44:59;;;;;;;15.45;8.20;;;12.10;99.90;;;;;;5019814;28;20053;-89
2022/05/10 02:47:36;;;;;;;11.30;7.30;;;12.10;99.90;;;;;;5021542;28;20106;-88
2022/05/10 02:50:07;;;;;;;16.23;7.80;;;12.20;99.90;;;;;;5025283;28;20038;-88
2022/05/10 02:52:33;;;;;;;12.93;8.00;;;12.20;99.90;;;;;;5042057;28;20065;-89
2022/05/10 02:55:09;;;;;;;15.90;8.40;;;12.30;99.90;;;;;;5039734;28;20077;-91
2022/05/10 02:57:35;;;;;;;11.98;7.70;;;12.30;99.90;;;;;;5024321;28;20037;-91
2022/05/10 03:00:03;;;;;;;17.67;8.30;;;12.30;99.90;;;;;;5037112;28;20165;-89
2022/05/10 03:02:33;;;;;;;20.23;8.70;;;12.40;99.90;;;;;;5061965;28;20045;-88
2022/05/10 03:04:59;;;;;;;18.95;9.05;;;12.40;99.90;;;;;;5019594;28;20049;-89
2022/05/10 03:07:27;;;;;;;18.08;8.60;;;12.40;99.90;;;;;;5023753;28;20156;-89
2022/05/10 03:09:56;;;;;;;15.00;8.50;;;12.50;99.90;;;;;;5020521;28;20067;-89
2022/05/10 03:12:24;;;;;;;15.95;9.02;;;12.50;99.90;;;;;;5016986;28;20060;-88
2022/05/10 03:14:57;;;;;;;15.88;8.60;;;12.50;99.90;;;;;;5020547;28;20053;-88
2022/05/10 03:17:26;;;;;;;19.85;8.73;;;12.60;99.90;;;;;;5001473;28;20042;-88
2022/05/10 03:20:00;;;;;;;14.52;8.85;;;12.60;99.90;;;;;;5018011;28;20612;-88
2022/05/10 03:22:25;;;;;;;17.88;8.48;;;12.60;99.90;;;;;;5033356;28;20064;-88
2022/05/10 03:24:57;;;;;;;20.42;8.93;;;12.70;99.90;;;;;;5019916;28;20076;-88
2022/05/10 03:27:28;;;;;;;16.50;8.75;;;12.60;99.90;;;;;;5026633;28;20041;-88
2022/05/10 03:29:59;;;;;;;14.38;8.32;;;12.60;99.90;;;;;;5041005;28;20135;-87
2022/05/10 03:32:48;;;;;;;15.73;8.55;;;12.60;99.90;;;;;;5016910;28;20045;-89
2022/05/10 03:35:16;;;;;;;16.27;9.23;;;12.60;99.90;;;;;;5041023;28;20057;-88
2022/05/10 03:37:49;;;;;;;16.63;9.73;;;12.70;99.90;;;;;;5014734;28;20766;-88
2022/05/10 03:40:18;;;;;;;18.00;9.20;;;12.70;99.90;;;;;;5026673;28;20076;-89
2022/05/10 03:42:56;;;;;;;14.45;9.18;;;12.70;99.90;;;;;;5001048;28;20041;-87
2022/05/10 03:45:36;;;;;;;16.02;8.93;;;12.60;99.90;;;;;;5031910;28;20052;-90
2022/05/10 03:48:18;;;;;;;18.40;9.55;;;12.50;99.90;;;;;;5016654;28;20124;-88
2022/05/10 03:50:49;;;;;;;15.05;9.20;;;12.50;99.90;;;;;;5016023;28;20053;-88
2022/05/10 03:53:18;;;;;;;17.85;9.45;;;12.60;99.90;;;;;;5015281;28;20081;-89
2022/05/10 03:55:48;;;;;;;16.50;9.30;;;12.50;99.90;;;;;;5018036;28;20053;-89
2022/05/10 03:58:16;;;;;;;16.58;9.65;;;12.50;99.90;;;;;;5016252;28;20048;-87
2022/05/10 04:00:47;;;;;;;17.75;10.23;;;12.60;99.90;;;;;;4999364;28;20111;-88
2022/05/10 04:03:16;;;;;;;17.10;9.95;;;12.60;99.90;;;;;;5017235;28;20099;-88
2022/05/10 04:05:45;;;;;;;16.58;9.40;;;12.60;99.90;;;;;;5033938;28;20132;-87
2022/05/10 04:08:21;;;;;;;;;;;;;;;;;;;;;
2022/05/10 04:10:47;;;;;;;;;;;12.70;99.90;;;;;;5031647;28;20054;-89
2022/05/10 04:13:17;;;;;;;19.30;10.27;;;12.60;99.90;;;;;;5012435;28;19928;-88
2022/05/10 04:15:46;;;;;;;16.17;9.38;;;12.60;99.90;;;;;;5032579;28;20048;-90
2022/05/10 04:18:17;;;;;;;17.17;9.60;;;12.70;99.90;;;;;;5016368;28;20049;-88
2022/05/10 04:20:42;;;;;;;17.67;10.02;;;12.60;99.90;;;;;;5016536;28;20041;-88
2022/05/10 04:23:09;;;;;;;17.20;9.65;;;12.60;99.90;;;;;;5015087;28;20033;-87
2022/05/10 04:25:37;;;;;;;16.00;9.65;;;12.60;99.90;;;;;;5014036;28;20054;-86
2022/05/10 04:28:06;;;;;;;15.23;9.57;;;12.70;99.90;;;;;;5027772;28;20041;-88
2022/05/10 04:30:35;;;;;;;16.10;9.30;;;12.70;99.90;;;;;;5025983;28;20330;-89
2022/05/10 04:33:08;;;;;;;19.58;9.73;;;12.70;99.90;;;;;;5017258;28;20045;-91
2022/05/10 04:35:36;;;;;;;18.00;9.38;;;12.70;99.90;;;;;;5043661;28;20111;-89
2022/05/10 04:38:04;;;;;;;18.08;9.75;;;12.70;99.90;;;;;;5013355;28;20049;-89
2022/05/10 04:43:18;;;;;;;24.70;11.25;;;12.80;99.90;;;;;;5011218;28;20049;-87
2022/05/10 04:45:45;;;;;;;17.88;9.93;;;12.90;99.90;;;;;;5012369;28;20076;-87
2022/05/10 04:48:11;;;;;;;17.67;10.55;;;12.90;99.90;;;;;;4996032;28;20048;-87
2022/05/10 04:50:37;;;;;;;16.08;10.07;;;13.00;99.90;;;;;;5009617;28;20176;-86
2022/05/10 04:53:02;;;;;;;20.15;10.80;;;13.00;99.90;;;;;;5012623;28;20132;-86
2022/05/10 04:55:30;;;;;;;20.75;10.82;;;13.00;99.90;;;;;;4976349;28;20060;-86
2022/05/10 04:57:56;;;;;;;20.92;11.38;;;13.10;99.90;;;;;;4995073;28;20152;-85
2022/05/10 05:00:23;;;;;;;16.30;10.38;;;13.20;99.90;;;;;;4992242;28;20137;-86
2022/05/10 05:02:49;;;;;;;19.70;11.00;;;13.20;99.90;;;;;;4992858;28;20050;-86
2022/05/10 05:05:17;;;;;;;15.90;10.30;;;13.30;99.90;;;;;;4987972;28;20053;-87
2022/05/10 05:07:43;;;;;;;17.30;10.23;;;13.40;99.90;;;;;;5062100;28;20048;-87
2022/05/10 05:10:12;;;;;;;18.23;11.07;;;13.40;99.90;;;;;;5061507;28;20045;-87
2022/05/10 05:12:37;;;;;;;19.25;11.43;;;13.50;99.90;;;;;;5015324;28;20045;-87
2022/05/10 05:15:07;;;;;;;15.95;10.60;;;13.60;99.90;;;;;;5016483;28;20055;-87
2022/05/10 05:17:33;;;;;;;19.63;11.43;;;13.60;99.90;;;;;;5033243;28;20040;-87
2022/05/10 05:19:59;;;;;;;19.05;11.13;;;13.70;99.90;;;;;;5046798;28;20387;-85
2022/05/10 05:22:26;;;;;;;19.45;11.30;;;13.70;99.90;;;;;;5029360;28;20045;-86
2022/05/10 05:24:53;;;;;;;22.45;12.05;;;13.80;99.90;;;;;;5013912;28;20045;-86
2022/05/10 05:27:19;;;;;;;15.98;9.93;;;13.90;99.90;;;;;;5017553;28;20053;-86
2022/05/10 05:29:46;;;;;;;16.25;10.98;;;14.00;99.90;;;;;;5014024;28;20049;-85
2022/05/10 05:32:13;;;;;;;25.63;11.32;;;14.10;99.90;;;;;;5028045;28;20059;-85
2022/05/10 05:34:39;;;;;;;27.27;11.85;;;14.10;99.90;;;;;;5022742;28;20411;-86
2022/05/10 05:39:49;;;;;;;20.15;10.75;;;14.30;99.90;;;;;;5017727;28;20064;-86
2022/05/10 05:42:15;;;;;;;18.13;10.75;;;14.40;99.90;;;;;;5015145;28;20518;-85
2022/05/10 05:44:41;;;;;;;19.58;11.13;;;14.50;99.90;;;;;;5014694;28;20664;-85
2022/05/10 05:47:07;;;;;;;22.48;12.35;;;14.60;99.90;;;;;;5031533;28;20053;-86
2022/05/10 05:49:33;;;;;;;24.05;11.98;;;14.60;99.90;;;;;;5014632;28;20072;-86
2022/05/10 05:52:00;;;;;;;16.17;10.73;;;14.70;99.90;;;;;;5014935;28;20053;-86
2022/05/10 05:54:26;;;;;;;15.02;10.80;;;14.80;99.90;;;;;;5014381;28;20155;-85
2022/05/10 05:57:03;;;;;;;18.83;10.85;;;14.90;99.90;;;;;;4994801;28;20054;-86
2022/05/10 05:59:29;;;;;;;18.52;11.05;;;15.00;99.90;;;;;;5010947;28;20049;-86
2022/05/10 06:01:55;;;;;;;15.68;10.48;;;15.10;99.90;;;;;;5011655;28;20045;-86
2022/05/10 06:04:21;;;;;;;16.25;10.27;;;15.20;99.90;;;;;;4994860;28;20065;-87
2022/05/10 06:06:47;;;;;;;12.30;9.57;;;15.30;99.90;;;;;;5011352;28;20053;-86
2022/05/10 06:09:13;;;;;;;21.13;10.70;;;15.40;99.90;;;;;;4994684;28;20041;-85
2022/05/10 06:11:39;;;;;;;14.00;9.70;;;15.50;99.90;;;;;;4994195;28;20060;-84
2022/05/10 06:14:06;;;;;;;17.10;9.80;;;15.70;99.50;;;;;;4994714;28;20125;-85
2022/05/10 06:16:32;;;;;;;15.55;9.80;;;15.80;98.50;;;;;;5013029;28;20049;-85
2022/05/10 06:18:58;;;;;;;20.13;9.55;;;15.90;98.30;;;;;;5013916;28;20048;-86
2022/05/10 06:21:23;;;;;;;19.15;9.65;;;16.10;97.50;;;;;;5030385;28;20049;-86
2022/05/10 06:23:49;;;;;;;14.05;9.60;;;16.30;97.50;;;;;;5014010;28;20053;-85
2022/05/10 06:26:15;;;;;;;17.00;9.45;;;16.30;96.90;;;;;;4997930;28;20056;-85
2022/05/10 06:28:41;;;;;;;15.55;10.18;;;16.50;96.20;;;;;;5029228;28;20065;-86
2022/05/10 06:31:09;;;;;;;15.32;9.38;;;16.70;94.90;;;;;;5013963;28;20053;-86
2022/05/10 06:33:35;;;;;;;14.38;9.25;;;16.80;94.20;;;;;;5029726;28;20084;-86
2022/05/10 06:36:01;;;;;;;18.30;9.73;;;17.00;93.30;;;;;;5030295;28;20111;-85
2022/05/10 06:38:27;;;;;;;13.02;8.75;;;17.30;92.50;;;;;;5029060;28;20057;-85
2022/05/10 06:41:00;;;;;;;12.93;9.18;;;17.60;91.50;;;;;;5030461;28;20049;-86
2022/05/10 06:43:26;;;;;;;12.40;8.30;;;17.90;90.10;;;;;;5013455;28;20045;-86
2022/05/10 06:45:51;;;;;;;13.93;8.45;;;18.10;88.10;;;;;;5030179;28;20136;-86
2022/05/10 06:48:17;;;;;;;13.65;8.07;;;18.30;84.60;;;;;;5030269;28;20049;-86
2022/05/10 06:50:44;;;;;;;14.60;7.95;;;18.50;82.10;;;;;;5013241;28;20513;-85
2022/05/10 06:53:10;;;;;;;16.83;6.93;;;18.60;79.90;;;;;;5013657;28;20056;-85
2022/05/10 06:55:38;;;;;;;14.40;7.35;;;18.70;78.30;;;;;;5029605;28;20156;-85
2022/05/10 06:58:05;;;;;;;17.95;7.43;;;18.80;77.20;;;;;;5029969;28;20111;-85
2022/05/10 07:00:36;;;;;;;11.40;6.60;;;18.90;76.30;;;;;;5029455;28;20053;-85
2022/05/10 07:03:07;;;;;;;13.43;6.80;;;18.90;74.90;;;;;;5013405;28;20076;-85
2022/05/10 07:05:34;;;;;;;8.40;6.15;;;18.90;75.40;;;;;;5029095;28;20045;-86
2022/05/10 07:08:00;;;;;;;12.45;6.40;;;19.00;75.80;;;;;;5029650;28;20060;-85
2022/05/10 07:10:26;;;;;;;9.25;5.43;;;19.10;75.80;;;;;;5029288;28;20049;-86
2022/05/10 07:12:52;;;;;;;11.60;6.38;;;19.20;74.80;;;;;;5012749;28;20130;-86
2022/05/10 07:15:19;;;;;;;9.98;5.80;;;19.50;74.00;;;;;;5012629;28;20060;-86
2022/05/10 07:17:45;;;;;;;14.32;5.60;;;19.70;72.40;;;;;;5028680;28;20045;-85
2022/05/10 07:20:13;;;;;;;10.43;5.68;;;20.00;71.90;;;;;;5012707;28;20510;-85
2022/05/10 07:22:38;;;;;;;10.18;5.43;;;20.30;69.30;;;;;;5029212;28;20096;-86
2022/05/10 07:25:06;;;;;;;12.25;5.43;;;20.70;67.20;;;;;;5012844;28;20499;-85
2022/05/10 07:27:31;;;;;;;9.63;5.25;;;21.00;65.10;;;;;;5012114;28;20510;-86
2022/05/10 07:29:57;;;;;;;8.18;4.65;;;21.30;63.30;;;;;;5012825;28;20123;-85
2022/05/10 07:32:24;;;;;;;10.27;5.20;;;21.60;61.70;;;;;;5013153;28;20053;-85
2022/05/10 07:34:50;;;;;;;13.23;5.43;;;21.80;59.00;;;;;;5012130;28;20045;-86
2022/05/10 07:37:16;;;;;;;9.85;4.50;;;22.00;57.10;;;;;;5029042;28;20136;-85
2022/05/10 07:39:42;;;;;;;10.93;4.75;;;22.20;56.40;;;;;;5028508;28;20521;-86
2022/05/10 07:42:08;;;;;;;12.93;4.72;;;22.50;55.20;;;;;;5012780;28;20049;-85
2022/05/10 07:44:34;;;;;;;9.93;4.43;;;22.60;54.40;;;;;;5012418;28;20060;-85
2022/05/10 07:47:04;;;;;;;9.98;4.97;;;22.70;53.80;;;;;;5029119;28;20050;-85
2022/05/10 07:49:29;;;;;;;13.18;5.85;;;22.70;52.60;;;;;;5028658;28;20053;-87
2022/05/10 07:51:55;;;;;;;11.38;5.63;;;22.70;52.60;;;;;;5029146;28;20052;-84
2022/05/10 07:54:21;;;;;;;11.13;5.18;;;22.80;52.50;;;;;;5001629;28;20405;-85
2022/05/10 07:56:47;;;;;;;9.25;4.93;;;22.80;51.80;;;;;;5027755;28;20110;-86
2022/05/10 07:59:13;;;;;;;12.48;5.50;;;22.90;51.40;;;;;;4995041;28;20487;-85
2022/05/10 08:01:38;;;;;;;12.55;5.47;;;23.00;50.20;;;;;;5010228;28;20140;-84
2022/05/10 08:04:04;;;;;;;7.90;4.60;;;23.10;50.00;;;;;;4995163;28;20053;-85
2022/05/10 08:06:30;;;;;;;8.82;4.45;;;23.30;50.40;;;;;;5012427;28;20044;-84
2022/05/10 08:08:57;;;;;;;10.00;4.85;;;23.30;48.80;;;;;;4995791;28;20479;-84
2022/05/10 08:11:23;;;;;;;12.80;5.10;;;23.40;49.00;;;;;;5012230;28;20092;-84
2022/05/10 08:13:49;;;;;;;10.30;4.35;;;23.60;49.20;;;;;;5011948;28;20089;-85
2022/05/10 08:16:16;;;;;;;8.25;4.63;;;23.70;48.40;;;;;;5012192;28;20128;-84
2022/05/10 08:18:45;;;;;;;10.13;4.30;;;23.90;47.50;;;;;;5011879;28;20050;-84
2022/05/10 08:21:12;;;;;;;8.23;4.68;;;24.00;46.70;;;;;;5028917;28;20610;-85
2022/05/10 08:23:38;;;;;;;10.43;4.85;;;24.00;45.70;;;;;;5028113;28;20096;-84
2022/05/10 08:26:05;;;;;;;7.63;4.70;;;23.90;45.40;;;;;;5012096;28;20049;-85
2022/05/10 08:28:34;;;;;;;8.68;4.60;;;24.00;46.00;;;;;;5012389;28;20060;-84
2022/05/10 08:31:05;;;;;;;9.35;4.30;;;24.20;46.10;;;;;;5033210;28;20052;-83
2022/05/10 08:33:33;;;;;;;12.52;5.32;;;24.60;46.20;;;;;;5015920;28;20053;-84
2022/05/10 08:35:59;;;;;;;7.47;4.50;;;24.70;45.40;;;;;;5016490;28;20045;-84
2022/05/10 08:38:27;;;;;;;9.70;5.40;;;24.80;45.10;;;;;;4998165;28;20068;-84
2022/05/10 08:41:14;;;;;;;7.93;4.60;;;24.70;45.10;;;;;;5013416;28;20060;-84
2022/05/10 08:43:41;;;;;;;11.70;4.75;;;24.70;44.60;;;;;;5013338;28;20038;-84
2022/05/10 08:46:17;;;;;;;8.15;4.45;;;24.50;44.50;;;;;;5029900;28;20130;-85
2022/05/10 08:48:46;;;;;;;8.15;4.32;;;24.50;44.50;;;;;;5012745;28;20053;-84
2022/05/10 08:51:12;;;;;;;9.00;4.20;;;24.60;44.50;;;;;;5029378;28;20041;-85
2022/05/10 08:53:38;;;;;;;8.88;4.40;;;24.50;44.30;;;;;;4999296;28;20053;-85
2022/05/10 08:56:24;;;;;;;12.02;4.10;;;24.40;44.10;;;;;;4999842;28;20757;-84
2022/05/10 08:58:59;;;;;;;11.57;4.32;;;24.30;44.20;;;;;;5015093;28;20089;-84
2022/05/10 09:01:31;;;;;;;8.93;4.00;;;24.30;44.70;;;;;;5016448;28;20053;-84
2022/05/10 09:04:25;;;;;;;7.40;4.22;;;24.20;44.30;;;;;;5032220;28;20205;-86
2022/05/10 09:07:36;;;;;;;7.70;4.25;;;24.20;45.10;;;;;;5032098;28;20049;-86
2022/05/10 09:10:28;;;;;;;9.32;4.93;;;24.20;45.50;;;;;;4992909;28;20140;-85
2022/05/10 09:13:01;;;;;;;9.38;4.35;;;24.20;45.70;;;;;;5029460;28;20053;-85
2022/05/10 09:15:32;;;;;;;10.73;5.10;;;24.30;45.30;;;;;;5015819;28;20107;-85
2022/05/10 09:17:58;;;;;;;8.60;4.50;;;24.30;44.90;;;;;;5014852;28;20057;-85
2022/05/10 09:20:24;;;;;;;8.27;4.68;;;24.20;45.10;;;;;;5015696;28;20053;-85
2022/05/10 09:23:09;;;;;;;7.82;4.72;;;24.10;46.50;;;;;;5015058;28;20517;-85
2022/05/10 09:25:39;;;;;;;11.27;5.45;;;24.10;46.70;;;;;;5031977;28;20111;-85
2022/05/10 09:28:32;;;;;;;11.55;4.65;;;24.00;46.30;;;;;;5015486;28;20115;-85
2022/05/10 09:36:55;;;;;;;11.93;5.15;;;24.00;47.30;;;;;;5031061;28;20508;-85
2022/05/10 09:39:33;;;;;;;13.20;6.15;;;24.10;47.10;;;;;;5014713;28;20148;-85
2022/05/10 09:41:59;;;;;;;8.30;5.88;;;24.20;46.60;;;;;;5030970;28;20056;-86
2022/05/10 09:44:29;;;;;;;16.05;5.93;;;24.20;46.50;;;;;;5015166;28;20140;-85
2022/05/10 09:47:18;;;;;;;11.48;5.88;;;24.30;46.50;;;;;;5014620;28;20056;-85
2022/05/10 09:49:44;;;;;;;8.48;6.30;;;24.60;46.30;;;;;;5031082;28;20056;-86
2022/05/10 09:52:36;;;;;;;8.98;6.07;;;24.70;46.20;;;;;;5014726;28;20045;-85
2022/05/10 09:55:12;;;;;;;10.07;5.53;;;25.00;45.00;;;;;;4996681;28;20406;-85
2022/05/10 09:57:40;;;;;;;9.57;6.22;;;25.10;45.50;;;;;;5031040;28;20065;-86
2022/05/10 10:00:11;;;;;;;12.35;6.50;;;25.20;44.90;;;;;;5031035;28;20057;-85
2022/05/10 10:02:39;;;;;;;8.80;5.63;;;25.30;44.30;;;;;;5030024;28;20143;-84
2022/05/10 10:05:29;;;;;;;10.27;5.55;;;25.20;44.90;;;;;;5013421;28;20057;-84
2022/05/10 10:07:57;;;;;;;10.57;5.88;;;25.40;45.00;;;;;;5030301;28;20049;-84
2022/05/10 10:10:32;;;;;;;12.90;6.55;;;25.60;44.70;;;;;;5014438;28;20053;-84
2022/05/10 10:12:59;;;;;;;9.55;5.18;;;25.70;44.50;;;;;;5030640;28;20049;-86
2022/05/10 10:15:35;;;;;;;10.30;5.70;;;25.90;44.30;;;;;;5014549;28;20049;-85
2022/05/10 10:18:04;;;;;;;9.20;5.40;;;25.90;43.40;;;;;;5013978;28;20042;-85
2022/05/10 10:20:53;;;;;;;13.77;5.90;;;25.70;43.40;;;;;;5030823;28;20045;-85
2022/05/10 10:23:24;;;;;;;7.60;4.97;;;25.50;43.40;;;;;;5014475;28;20053;-85
2022/05/10 10:25:55;;;;;;;10.70;5.32;;;25.50;44.10;;;;;;5013756;28;20743;-85
2022/05/10 10:28:38;;;;;;;11.40;5.30;;;25.50;43.80;;;;;;5030668;28;20050;-84
2022/05/10 10:31:32;;;;;;;10.02;5.07;;;25.40;43.10;;;;;;5014097;28;20182;-85
2022/05/10 10:34:19;;;;;;;8.68;5.30;;;25.40;42.50;;;;;;5029156;28;20065;-85
2022/05/10 10:37:14;;;;;;;10.32;4.93;;;25.40;42.60;;;;;;5013846;28;20049;-87
2022/05/10 10:39:40;;;;;;;9.40;5.28;;;25.50;43.60;;;;;;5030678;28;20049;-84
2022/05/10 10:42:14;;;;;;;8.48;5.25;;;26.10;42.80;;;;;;5030236;28;20569;-85
2022/05/10 10:44:51;;;;;;;12.43;5.57;;;26.70;41.40;;;;;;5030253;28;20051;-85
2022/05/10 10:47:38;;;;;;;11.50;5.55;;;26.90;40.80;;;;;;5013862;28;20863;-85
2022/05/10 10:50:27;;;;;;;9.13;5.93;;;26.90;40.40;;;;;;5029955;28;20053;-84
2022/05/10 10:52:55;;;;;;;9.90;5.40;;;26.70;41.10;;;;;;5013316;28;20053;-84
2022/05/10 10:55:30;;;;;;;9.68;5.05;;;26.40;41.00;;;;;;5013697;28;20050;-84
2022/05/10 10:58:13;;;;;;;7.10;4.68;;;26.40;41.60;;;;;;5029564;28;20553;-84
2022/05/10 11:00:50;;;;;;;10.75;5.13;;;26.50;41.60;;;;;;5030062;28;20045;-86
2022/05/10 11:04:01;;;;;;;10.13;5.30;;;26.70;39.60;;;;;;5013438;28;20140;-84
2022/05/10 11:06:28;;;;;;;9.90;5.05;;;26.70;40.50;;;;;;5025358;28;20103;-85
2022/05/10 11:08:54;;;;;;;13.95;4.78;;;26.60;40.60;;;;;;5029485;28;20077;-84
2022/05/10 11:11:19;;;;;;;9.25;5.00;;;26.60;41.10;;;;;;5013123;28;20092;-85
2022/05/10 11:14:08;;;;;;;14.70;6.30;;;26.60;41.60;;;;;;5029544;28;20450;-85
2022/05/10 11:16:34;;;;;;;9.65;5.70;;;26.50;41.10;;;;;;5013182;28;20061;-85
2022/05/10 11:19:44;;;;;;;8.43;5.38;;;25.90;42.50;;;;;;5028846;28;20517;-84
2022/05/10 11:22:39;;;;;;;18.85;5.35;;;25.20;43.60;;;;;;5010268;28;20087;-84
2022/05/10 11:25:37;;;;;;;12.60;5.50;;;24.70;46.00;;;;;;5029092;28;20124;-85
2022/05/10 11:28:26;;;;;;;7.75;5.07;;;24.40;46.10;;;;;;5012471;28;20046;-85
2022/05/10 11:31:01;;;;;;;12.82;5.68;;;24.40;46.50;;;;;;5012714;28;20053;-85
2022/05/10 11:34:02;;;;;;;10.65;5.63;;;24.40;46.10;;;;;;5029426;28;20041;-85
2022/05/10 11:36:47;;;;;;;8.93;5.00;;;24.50;46.30;;;;;;5023501;28;20053;-85
2022/05/10 11:39:28;;;;;;;9.65;6.20;;;24.60;47.20;;;;;;4995836;28;20061;-85
2022/05/10 11:42:13;;;;;;;10.50;5.88;;;24.60;45.90;;;;;;5028740;28;20053;-85
2022/05/10 11:45:00;;;;;;;12.60;5.38;;;24.70;45.90;;;;;;5029034;28;20053;-85
2022/05/10 11:47:37;;;;;;;14.05;5.18;;;25.00;45.30;;;;;;5029218;28;20053;-85
2022/05/10 11:50:24;;;;;;;11.18;5.75;;;25.50;43.90;;;;;;5028731;28;20041;-86
2022/05/10 11:53:07;;;;;;;8.35;5.05;;;26.00;43.10;;;;;;5028364;28;20430;-87
2022/05/10 11:55:54;;;;;;;11.98;5.50;;;26.70;41.90;;;;;;5012317;28;20083;-85
2022/05/10 11:58:22;;;;;;;17.15;5.30;;;27.20;40.30;;;;;;5028579;28;20391;-86
2022/05/10 12:00:51;;;;;;;11.68;5.32;;;27.40;39.80;;;;;;4996328;28;20053;-85
2022/05/10 12:03:35;;;;;;;9.32;5.03;;;27.70;39.50;;;;;;5028751;28;20045;-85
2022/05/10 12:06:23;;;;;;;7.63;5.07;;;28.30;37.80;;;;;;5027806;28;20589;-85
2022/05/10 12:08:57;;;;;;;11.52;4.45;;;28.80;36.30;;;;;;5028278;28;20561;-85
2022/05/10 12:11:30;;;;;;;6.18;3.80;;;28.50;36.50;;;;;;5012148;28;20089;-84
2022/05/10 12:22:17;;;;;;;8.05;4.05;;;27.80;36.50;;;;;;5028019;28;20581;-84
2022/05/10 12:24:45;;;;;;;9.15;4.00;;;27.00;37.90;;;;;;5012443;28;20050;-85
2022/05/10 12:27:11;;;;;;;10.30;4.25;;;26.30;38.70;;;;;;5010947;28;20107;-85
2022/05/10 12:29:40;;;;;;;9.73;3.90;;;26.00;39.60;;;;;;5028593;28;20049;-84
2022/05/10 12:32:09;;;;;;;10.23;4.00;;;25.90;40.20;;;;;;5011580;28;20438;-85
2022/05/10 12:34:58;;;;;;;7.78;4.45;;;25.70;40.80;;;;;;5011942;28;20068;-84
2022/05/10 12:37:30;;;;;;;7.03;3.50;;;25.70;41.40;;;;;;5011441;28;20148;-84
2022/05/10 12:39:59;;;;;;;11.05;5.18;;;25.70;42.10;;;;;;5027959;28;20057;-84
2022/05/10 12:42:49;;;;;;;9.25;4.35;;;25.90;40.60;;;;;;5011791;28;20128;-84
2022/05/10 12:45:26;;;;;;;14.75;4.57;;;26.00;40.50;;;;;;5027851;28;20045;-84
2022/05/10 12:48:31;;;;;;;11.73;4.40;;;26.00;40.20;;;;;;5011915;28;20053;-84
2022/05/10 12:51:03;;;;;;;8.93;3.67;;;26.20;40.10;;;;;;5011344;28;20045;-85
2022/05/10 12:53:47;;;;;;;10.13;4.57;;;26.50;40.10;;;;;;5011734;28;20060;-85
2022/05/10 12:56:17;;;;;;;9.35;4.10;;;26.80;39.50;;;;;;5011034;28;20042;-84
2022/05/10 12:58:48;;;;;;;9.20;3.88;;;26.80;39.00;;;;;;5027831;28;20042;-85
2022/05/10 13:01:18;;;;;;;11.80;3.90;;;26.40;39.40;;;;;;5011264;28;20065;-84
2022/05/10 13:03:51;;;;;;;9.60;4.10;;;26.00;39.90;;;;;;5011453;28;20053;-84
2022/05/10 13:06:19;;;;;;;8.30;4.15;;;25.80;40.20;;;;;;5027256;28;20625;-85
2022/05/10 13:08:54;;;;;;;8.90;3.58;;;25.40;41.00;;;;;;5027625;28;20584;-85
2022/05/10 13:11:23;;;;;;;9.25;3.88;;;25.00;42.00;;;;;;5027330;28;20057;-85
2022/05/10 13:13:52;;;;;;;7.43;4.03;;;24.70;42.50;;;;;;5027945;28;20057;-85
2022/05/10 13:16:20;;;;;;;12.25;3.55;;;24.40;43.20;;;;;;5027536;28;20053;-85
2022/05/10 13:18:47;;;;;;;10.73;3.95;;;24.40;43.50;;;;;;5027630;28;20049;-85
2022/05/10 13:21:24;;;;;;;9.10;3.53;;;24.40;43.80;;;;;;5027698;28;20399;-84
2022/05/10 13:23:55;;;;;;;10.10;3.75;;;24.50;43.50;;;;;;5028112;28;20056;-85
2022/05/10 13:26:22;;;;;;;8.55;3.72;;;24.40;43.10;;;;;;5011035;28;20049;-85
2022/05/10 13:28:54;;;;;;;12.23;3.00;;;24.30;42.50;;;;;;5011572;28;20051;-85
2022/05/10 13:31:26;;;;;;;7.50;3.80;;;24.30;42.50;;;;;;5027434;28;20056;-85
2022/05/10 13:34:07;;;;;;;12.02;3.65;;;24.20;42.50;;;;;;5028112;28;20053;-85
2022/05/10 13:36:33;;;;;;;7.32;3.50;;;24.00;43.50;;;;;;5027987;28;20045;-84